Time;durP1;ratioP1;P1;durP2;ratioP2;P2;SDS_P1;SDS_P2;PMS_P1;PMS_P2;Temp;Humidity;BMP_temperature;BMP_pressure;BME280_temperature;BME280_humidity;BME280_pressure;Samples;Min_cycle;Max_cycle;Signal;HPM_P1;HPM_P2
2022/01/23 00:02:09;;;;;;;4.20;2.90;;;22.20;62.60;;;;;;7810656;28;20179;-51
2022/01/23 00:05:54;;;;;;;6.30;3.00;;;22.20;62.60;;;;;;7810238;28;20584;-52
2022/01/23 00:09:41;;;;;;;4.65;2.38;;;22.10;62.60;;;;;;7809880;28;20226;-54
2022/01/23 00:17:13;;;;;;;7.82;2.65;;;22.10;62.60;;;;;;7810137;28;20217;-51
2022/01/23 00:17:35;;;;;;;4.43;2.55;;;22.10;63.40;;;;;;7809574;28;20205;-50
2022/01/23 00:21:21;;;;;;;2.85;2.35;;;22.00;62.40;;;;;;7809986;28;20675;-50
2022/01/23 00:33:16;;;;;;;3.30;2.13;;;21.90;62.10;;;;;;7809519;28;20828;-51
2022/01/23 00:37:02;;;;;;;5.47;2.88;;;21.90;62.10;;;;;;7809425;28;20174;-52
2022/01/23 00:40:48;;;;;;;4.30;3.30;;;21.90;62.10;;;;;;7809283;28;20206;-50
2022/01/23 00:44:36;;;;;;;4.05;3.30;;;21.80;62.20;;;;;;7809666;28;20202;-50
2022/01/23 00:48:26;;;;;;;4.78;2.72;;;21.80;62.20;;;;;;7809073;28;20581;-51
2022/01/23 00:52:12;;;;;;;5.32;3.17;;;21.80;62.20;;;;;;7809174;28;20293;-50
2022/01/23 00:55:58;;;;;;;4.75;2.88;;;21.70;62.20;;;;;;7808917;28;20680;-53
2022/01/23 00:59:43;;;;;;;3.53;2.70;;;21.80;62.30;;;;;;7808474;28;20203;-52
2022/01/23 01:03:29;;;;;;;5.95;3.00;;;21.70;62.50;;;;;;7808616;28;20193;-52
2022/01/23 01:07:14;;;;;;;3.50;2.67;;;21.70;62.50;;;;;;7808377;28;20187;-51
2022/01/23 01:31:26;;;;;;;3.47;2.38;;;21.50;62.60;;;;;;7807889;28;20202;-52
2022/01/23 01:35:33;;;;;;;3.03;2.20;;;21.50;62.60;;;;;;7807787;28;20185;-52
2022/01/23 01:39:26;;;;;;;3.00;2.30;;;21.50;62.60;;;;;;7806743;28;20282;-51
2022/01/23 01:43:11;;;;;;;2.83;2.35;;;21.40;62.60;;;;;;7807663;28;20177;-51
2022/01/23 01:46:57;;;;;;;2.40;2.10;;;21.40;62.60;;;;;;7807447;28;20233;-51
2022/01/23 01:50:46;;;;;;;3.00;2.30;;;21.40;62.60;;;;;;7807022;28;20206;-52
2022/01/23 01:54:33;;;;;;;2.42;2.15;;;21.40;62.70;;;;;;7807341;28;20170;-52
2022/01/23 02:10:32;;;;;;;2.78;1.77;;;21.30;62.50;;;;;;7806750;28;20569;-53
2022/01/23 02:14:42;;;;;;;1.90;1.70;;;21.30;62.50;;;;;;7807130;28;20268;-51
2022/01/23 02:22:27;;;;;;;2.10;1.58;;;21.30;62.50;;;;;;7806797;28;20194;-50
2022/01/23 02:50:38;;;;;;;1.92;1.65;;;21.30;62.50;;;;;;7807386;28;20673;-51
2022/01/23 02:55:27;;;;;;;1.90;1.60;;;21.20;62.50;;;;;;7812554;28;20549;-50
2022/01/23 02:59:23;;;;;;;2.03;1.40;;;21.10;62.40;;;;;;7812147;28;20665;-50
2022/01/23 03:03:12;;;;;;;1.95;1.42;;;21.10;62.40;;;;;;7812402;28;20274;-50
2022/01/23 03:07:19;;;;;;;1.75;1.65;;;21.10;62.40;;;;;;7812376;28;20174;-52
2022/01/23 03:11:14;;;;;;;1.50;1.40;;;21.10;62.40;;;;;;7811935;28;20206;-50
2022/01/23 03:15:08;;;;;;;2.53;1.60;;;21.10;62.40;;;;;;7811979;28;20178;-50
2022/01/23 03:31:08;;;;;;;2.08;1.40;;;21.00;62.50;;;;;;7811098;28;20214;-51
2022/01/23 03:34:55;;;;;;;1.70;1.60;;;21.00;62.60;;;;;;7811278;28;20163;-55
2022/01/23 03:38:41;;;;;;;1.80;1.70;;;21.00;62.50;;;;;;7810769;28;20195;-50
2022/01/23 03:42:28;;;;;;;2.80;1.60;;;20.90;62.50;;;;;;7811216;28;20281;-51
2022/01/23 03:50:18;;;;;;;1.83;1.55;;;20.90;62.50;;;;;;7810499;28;20854;-53
2022/01/23 03:54:04;;;;;;;3.97;1.55;;;20.90;62.60;;;;;;7810765;28;20560;-50
2022/01/23 03:57:49;;;;;;;1.70;1.60;;;20.90;62.60;;;;;;7810325;28;20245;-50
2022/01/23 04:01:35;;;;;;;1.60;1.50;;;20.90;62.70;;;;;;7810015;28;20685;-50
2022/01/23 04:05:21;;;;;;;1.42;1.33;;;20.90;62.60;;;;;;7810185;28;20190;-52
2022/01/23 04:09:06;;;;;;;1.33;1.23;;;20.80;62.50;;;;;;7809922;28;20207;-52
2022/01/23 04:12:56;;;;;;;2.70;1.33;;;20.90;62.70;;;;;;7809987;28;20268;-51
2022/01/23 04:17:23;;;;;;;1.40;1.30;;;20.80;62.50;;;;;;7810074;28;20651;-52
2022/01/23 04:45:27;;;;;;;2.75;1.10;;;20.70;62.70;;;;;;7809331;28;20186;-50
2022/01/23 05:05:10;;;;;;;2.33;1.10;;;20.60;62.80;;;;;;7808724;28;20224;-51
2022/01/23 05:08:56;;;;;;;0.90;0.90;;;20.60;62.70;;;;;;7808227;28;20225;-52
2022/01/23 05:12:41;;;;;;;1.10;1.00;;;20.60;62.80;;;;;;7808329;28;20194;-50
2022/01/23 05:16:27;;;;;;;1.10;1.00;;;20.50;62.70;;;;;;7807807;28;20186;-49
2022/01/23 05:20:14;;;;;;;1.25;0.95;;;20.60;62.80;;;;;;7807919;28;20195;-52
2022/01/23 05:24:01;;;;;;;1.50;1.10;;;20.60;62.80;;;;;;7808122;28;20249;-50
2022/01/23 05:27:51;;;;;;;1.42;1.10;;;20.50;62.80;;;;;;7807752;28;20502;-49
2022/01/23 05:31:37;;;;;;;1.50;1.10;;;20.50;62.90;;;;;;7807803;28;20208;-49
2022/01/23 05:35:24;;;;;;;1.20;1.10;;;20.50;62.90;;;;;;7807813;28;20175;-49
2022/01/23 05:39:09;;;;;;;1.98;1.23;;;20.50;62.90;;;;;;7807580;28;20226;-50
2022/01/23 05:42:55;;;;;;;1.08;0.98;;;20.50;63.10;;;;;;7807635;28;20193;-52
2022/01/23 05:46:40;;;;;;;1.25;1.00;;;20.50;63.10;;;;;;7806889;28;20202;-50
2022/01/23 05:50:26;;;;;;;0.75;0.75;;;20.50;63.10;;;;;;7806715;28;20230;-52
2022/01/23 05:54:11;;;;;;;0.98;0.95;;;20.50;63.10;;;;;;7806423;28;20238;-49
2022/01/23 05:57:57;;;;;;;0.80;0.80;;;20.50;63.20;;;;;;7807091;28;20439;-50
2022/01/23 06:01:43;;;;;;;0.93;0.90;;;20.50;63.30;;;;;;7823077;28;20297;-51
2022/01/23 06:05:29;;;;;;;2.63;0.70;;;20.50;63.10;;;;;;7819616;28;20194;-50
2022/01/23 06:09:15;;;;;;;1.17;0.90;;;20.50;63.10;;;;;;7806402;28;20252;-52
2022/01/23 06:13:02;;;;;;;0.80;0.80;;;20.50;63.10;;;;;;7807240;28;20245;-53
2022/01/23 06:16:48;;;;;;;0.95;0.88;;;20.40;63.20;;;;;;7816060;28;20681;-49
2022/01/23 06:20:34;;;;;;;1.00;0.90;;;20.40;63.20;;;;;;7819093;28;20301;-49
2022/01/23 06:24:25;;;;;;;1.17;1.05;;;20.40;63.20;;;;;;7829195;28;20189;-49
2022/01/23 06:28:14;;;;;;;2.42;1.13;;;20.40;63.20;;;;;;7830024;28;20249;-52
2022/01/23 06:32:02;;;;;;;1.90;0.90;;;20.40;63.30;;;;;;7829581;28;20296;-49
2022/01/23 06:35:47;;;;;;;8.23;0.90;;;20.40;63.40;;;;;;7813176;28;20252;-50
2022/01/23 06:39:33;;;;;;;15.32;1.52;;;20.40;63.60;;;;;;7812661;28;20221;-49
2022/01/23 06:43:18;;;;;;;5.22;1.20;;;20.40;63.60;;;;;;7816307;28;20224;-50
2022/01/23 06:47:04;;;;;;;15.13;1.40;;;20.40;63.50;;;;;;7843511;28;20282;-51
2022/01/23 06:50:50;;;;;;;7.32;1.30;;;20.40;63.50;;;;;;7843006;28;20263;-49
2022/01/23 06:54:36;;;;;;;6.90;1.13;;;20.40;63.50;;;;;;7843471;28;20261;-52
2022/01/23 06:58:21;;;;;;;4.60;1.10;;;20.40;63.50;;;;;;7843082;28;20190;-49
2022/01/23 07:02:07;;;;;;;5.43;1.10;;;20.30;63.50;;;;;;7843175;28;20182;-51
2022/01/23 07:05:53;;;;;;;5.68;1.73;;;20.40;63.60;;;;;;7820465;28;20261;-51
2022/01/23 07:09:38;;;;;;;11.05;1.20;;;20.30;63.70;;;;;;7812130;28;20218;-49
2022/01/23 07:13:25;;;;;;;10.35;1.58;;;20.40;63.80;;;;;;7811816;28;20684;-50
2022/01/23 07:17:10;;;;;;;5.68;1.58;;;20.40;63.80;;;;;;7813906;28;20613;-52
2022/01/23 07:20:56;;;;;;;15.02;1.95;;;20.40;63.90;;;;;;7811174;28;20207;-50
2022/01/23 07:24:42;;;;;;;6.65;1.27;;;20.40;63.80;;;;;;7811612;28;20259;-52
2022/01/23 07:28:37;;;;;;;13.38;2.47;;;20.30;63.70;;;;;;7811186;28;20209;-49
2022/01/23 07:32:23;;;;;;;23.60;2.35;;;20.30;63.80;;;;;;7811408;28;20679;-51
2022/01/23 07:36:08;;;;;;;21.20;2.08;;;20.30;63.80;;;;;;7810963;28;20625;-52
2022/01/23 07:39:53;;;;;;;16.30;1.67;;;20.30;63.80;;;;;;7809937;28;20195;-49
2022/01/23 07:43:39;;;;;;;18.60;1.75;;;20.30;63.80;;;;;;7811337;28;20257;-50
2022/01/23 07:47:24;;;;;;;13.40;1.58;;;20.30;64.00;;;;;;7810879;28;20305;-49
2022/01/23 07:51:10;;;;;;;70.07;3.72;;;20.30;64.00;;;;;;7819872;28;20220;-49
2022/01/23 07:54:56;;;;;;;73.85;4.85;;;20.30;64.40;;;;;;7832948;28;20193;-52
2022/01/23 07:58:41;;;;;;;42.67;3.55;;;20.30;64.40;;;;;;7809853;28;20197;-52
2022/01/23 08:02:27;;;;;;;53.80;3.85;;;20.30;64.40;;;;;;7810756;28;20187;-49
2022/01/23 08:06:13;;;;;;;51.30;4.03;;;20.30;64.10;;;;;;7810436;28;20190;-50
2022/01/23 08:10:00;;;;;;;40.53;2.65;;;20.30;64.20;;;;;;7817204;28;20236;-49
2022/01/23 08:13:46;;;;;;;27.65;2.50;;;20.30;64.10;;;;;;7841036;28;20201;-52
2022/01/23 08:17:32;;;;;;;38.20;2.70;;;20.30;64.20;;;;;;7840767;28;20327;-53
2022/01/23 08:21:17;;;;;;;18.02;2.40;;;20.30;64.20;;;;;;7840858;28;20186;-49
2022/01/23 08:25:04;;;;;;;24.85;3.50;;;20.30;64.30;;;;;;7827458;28;20208;-52
2022/01/23 08:28:50;;;;;;;8.32;1.70;;;20.30;64.30;;;;;;7809444;28;20210;-49
2022/01/23 08:32:35;;;;;;;12.77;1.88;;;20.30;64.30;;;;;;7809499;28;20684;-51
2022/01/23 08:36:20;;;;;;;31.92;2.45;;;20.30;64.40;;;;;;7809518;28;20187;-49
2022/01/23 08:40:22;;;;;;;20.17;2.97;;;20.30;64.30;;;;;;7809048;28;20206;-49
2022/01/23 08:44:07;;;;;;;22.30;2.45;;;20.30;64.30;;;;;;7809314;28;20178;-49
2022/01/23 08:47:53;;;;;;;6.53;1.70;;;20.30;64.40;;;;;;7827169;28;20202;-51
2022/01/23 08:51:38;;;;;;;8.30;2.15;;;20.30;64.40;;;;;;7811263;28;20202;-50
2022/01/23 08:55:24;;;;;;;16.90;2.00;;;20.30;64.40;;;;;;7817905;28;20175;-51
2022/01/23 08:59:10;;;;;;;8.75;1.85;;;20.30;64.40;;;;;;7813804;28;20199;-49
2022/01/23 09:02:57;;;;;;;11.18;2.63;;;20.30;64.40;;;;;;7824305;28;20201;-49
2022/01/23 09:06:46;;;;;;;11.63;2.20;;;20.30;64.30;;;;;;7839701;28;20679;-52
2022/01/23 09:10:40;;;;;;;13.35;2.20;;;20.30;64.40;;;;;;7839300;28;20285;-49
2022/01/23 09:14:26;;;;;;;12.40;2.17;;;20.30;64.20;;;;;;7839483;28;20541;-50
2022/01/23 09:18:12;;;;;;;6.18;1.70;;;20.30;64.20;;;;;;7839041;28;20201;-51
2022/01/23 09:21:58;;;;;;;7.00;1.80;;;20.30;64.20;;;;;;7839253;28;20210;-52
2022/01/23 09:25:44;;;;;;;7.90;1.75;;;20.40;64.10;;;;;;7838946;28;20873;-53
2022/01/23 09:29:40;;;;;;;3.83;2.08;;;20.40;64.10;;;;;;7838624;28;20553;-50
2022/01/23 09:33:26;;;;;;;9.27;2.28;;;20.40;65.00;;;;;;7839315;28;20581;-49
2022/01/23 09:37:15;;;;;;;17.75;2.65;;;20.40;64.10;;;;;;7838840;28;20173;-52
2022/01/23 09:41:02;;;;;;;12.77;2.10;;;20.40;64.10;;;;;;7838642;28;20316;-51
2022/01/23 09:44:56;;;;;;;10.52;2.60;;;20.40;64.00;;;;;;7838028;28;20177;-50
2022/01/23 09:48:43;;;;;;;12.15;2.47;;;20.50;64.00;;;;;;7838749;28;20210;-50
2022/01/23 09:52:34;;;;;;;10.50;2.38;;;20.50;64.10;;;;;;7838799;28;20296;-50
2022/01/23 09:56:27;;;;;;;9.35;2.25;;;20.50;64.00;;;;;;7838438;28;20185;-50
2022/01/23 10:00:19;;;;;;;7.43;2.60;;;20.50;64.00;;;;;;7837545;28;20198;-50
2022/01/23 10:04:05;;;;;;;12.90;2.30;;;20.50;64.00;;;;;;7838575;28;20644;-49
2022/01/23 10:07:52;;;;;;;6.80;2.33;;;20.50;64.00;;;;;;7836597;28;20197;-50
2022/01/23 10:11:41;;;;;;;10.38;2.30;;;20.50;64.00;;;;;;7838024;28;20255;-50
2022/01/23 10:15:31;;;;;;;9.75;2.15;;;20.50;64.00;;;;;;7837865;28;20170;-52
2022/01/23 10:19:17;;;;;;;15.50;2.63;;;20.60;64.10;;;;;;7837994;28;20193;-49
2022/01/23 10:23:02;;;;;;;14.15;2.30;;;20.60;65.00;;;;;;7837472;28;20205;-49
2022/01/23 10:26:56;;;;;;;10.20;2.60;;;20.60;64.10;;;;;;7838669;28;20186;-50
2022/01/23 10:30:47;;;;;;;9.48;2.80;;;20.60;64.00;;;;;;7837814;28;20206;-50
2022/01/23 10:34:59;;;;;;;15.20;2.50;;;20.60;64.00;;;;;;7837749;28;20197;-49
2022/01/23 10:38:47;;;;;;;13.88;2.80;;;20.60;63.90;;;;;;7815919;28;20292;-49
2022/01/23 10:47:27;;;;;;;13.05;2.50;;;20.60;63.70;;;;;;7806951;28;20659;-50
2022/01/23 10:50:38;;;;;;;10.32;2.28;;;20.70;63.80;;;;;;7805062;28;20623;-49
2022/01/23 10:54:24;;;;;;;5.18;2.47;;;20.70;63.70;;;;;;7806673;28;20258;-52
2022/01/23 10:58:21;;;;;;;8.13;2.13;;;20.70;63.70;;;;;;7806189;28;20195;-50
2022/01/23 11:02:10;;;;;;;7.82;2.28;;;20.70;63.70;;;;;;7806660;28;20185;-53
2022/01/23 11:05:55;;;;;;;14.18;2.22;;;20.70;63.70;;;;;;7806374;28;20185;-50
2022/01/23 11:09:41;;;;;;;4.68;2.10;;;20.70;63.70;;;;;;7805946;28;20289;-50
2022/01/23 11:17:52;;;;;;;8.13;2.13;;;20.80;63.60;;;;;;7811306;28;20195;-49
2022/01/23 11:21:38;;;;;;;4.95;2.00;;;20.80;63.60;;;;;;7811603;28;20183;-52
2022/01/23 11:25:24;;;;;;;4.43;1.67;;;20.70;63.60;;;;;;7811696;28;20179;-49
2022/01/23 11:29:12;;;;;;;5.68;1.70;;;20.80;63.60;;;;;;7811217;28;20714;-50
2022/01/23 11:32:58;;;;;;;4.07;2.05;;;20.80;63.60;;;;;;7811217;28;20206;-51
2022/01/23 11:36:43;;;;;;;5.80;1.88;;;20.70;63.60;;;;;;7811246;28;20178;-49
2022/01/23 11:56:33;;;;;;;3.65;1.55;;;20.80;63.60;;;;;;7811202;28;20170;-53
2022/01/23 12:00:33;;;;;;;4.00;1.52;;;20.80;63.80;;;;;;7810521;28;20197;-49
2022/01/23 12:04:21;;;;;;;1.50;1.40;;;20.80;63.60;;;;;;7810866;28;20813;-53
2022/01/23 12:08:17;;;;;;;5.93;1.67;;;20.80;63.60;;;;;;7810207;28;20714;-53
2022/01/23 12:12:36;;;;;;;4.82;1.80;;;20.80;63.60;;;;;;7810510;28;20722;-50
2022/01/23 12:17:17;;;;;;;2.85;1.60;;;20.90;63.60;;;;;;7810324;28;20186;-53
2022/01/23 12:21:02;;;;;;;12.57;3.30;;;20.80;63.60;;;;;;7775347;28;20225;-52
2022/01/23 12:24:49;;;;;;;16.38;3.33;;;20.80;63.20;;;;;;7775066;28;20188;-53
2022/01/23 12:28:43;;;;;;;26.92;4.88;;;20.80;63.50;;;;;;7774919;28;20711;-52
2022/01/23 12:32:30;;;;;;;23.40;3.65;;;20.80;63.30;;;;;;7775368;28;20211;-51
2022/01/23 12:36:15;;;;;;;15.73;3.95;;;20.80;63.40;;;;;;7774963;28;20218;-50
2022/01/23 12:40:32;;;;;;;32.65;12.07;;;20.80;63.60;;;;;;7774530;28;20222;-52
2022/01/23 12:44:24;;;;;;;38.25;11.10;;;20.90;64.00;;;;;;7774650;28;20210;-50
2022/01/23 12:48:30;;;;;;;27.40;9.35;;;20.90;64.00;;;;;;7774142;28;20219;-53
2022/01/23 12:52:18;;;;;;;19.27;7.35;;;20.90;63.90;;;;;;7774416;28;20215;-49
2022/01/23 12:56:10;;;;;;;20.23;6.75;;;20.90;63.90;;;;;;7807288;28;20258;-52
2022/01/23 13:00:00;;;;;;;16.48;5.75;;;20.90;63.80;;;;;;7808605;28;20248;-51
2022/01/23 13:04:00;;;;;;;20.27;6.70;;;20.80;63.80;;;;;;7808723;28;20181;-54
2022/01/23 13:08:05;;;;;;;29.73;6.88;;;20.90;63.80;;;;;;7808275;28;20201;-53
2022/01/23 13:12:46;;;;;;;17.20;6.18;;;20.90;63.90;;;;;;7808461;28;20202;-50
2022/01/23 13:26:26;;;;;;;21.77;5.93;;;20.80;63.70;;;;;;7808088;28;20222;-51
2022/01/23 13:29:01;;;;;;;14.50;4.82;;;20.80;63.70;;;;;;7807865;28;20198;-49
2022/01/23 13:32:39;;;;;;;19.73;4.72;;;20.90;63.70;;;;;;7807944;28;20754;-49
2022/01/23 13:36:25;;;;;;;12.88;4.93;;;20.80;63.80;;;;;;7807709;28;20183;-49
2022/01/23 13:40:15;;;;;;;11.25;4.82;;;20.90;63.80;;;;;;7807649;28;20194;-51
2022/01/23 13:52:40;;;;;;;14.52;4.63;;;20.90;63.80;;;;;;7807718;28;20198;-52
2022/01/23 14:00:41;;;;;;;21.10;4.43;;;20.90;63.80;;;;;;7807424;28;20187;-50
2022/01/23 14:04:35;;;;;;;9.25;3.75;;;20.90;63.80;;;;;;7807316;28;20166;-50
2022/01/23 14:08:21;;;;;;;13.32;3.95;;;20.80;63.70;;;;;;7806873;28;20533;-53
2022/01/23 14:12:08;;;;;;;7.65;3.65;;;20.80;63.60;;;;;;7807273;28;20229;-50
2022/01/23 14:15:56;;;;;;;15.20;4.28;;;20.90;63.70;;;;;;7807088;28;20644;-49
2022/01/23 14:19:56;;;;;;;13.65;3.60;;;20.90;63.70;;;;;;7806674;28;20264;-51
2022/01/23 14:23:51;;;;;;;9.55;3.65;;;20.80;63.70;;;;;;7807014;28;20178;-51
2022/01/23 14:27:37;;;;;;;13.80;4.13;;;20.90;63.60;;;;;;7806711;28;20193;-50
2022/01/23 14:31:25;;;;;;;10.80;3.65;;;20.90;63.70;;;;;;7806729;28;20331;-51
2022/01/23 14:35:16;;;;;;;11.63;3.80;;;20.90;63.60;;;;;;7815936;28;20186;-50
2022/01/23 14:39:12;;;;;;;10.45;3.85;;;20.90;63.50;;;;;;7806406;28;20241;-49
2022/01/23 14:43:11;;;;;;;10.90;3.92;;;20.90;63.50;;;;;;7806919;28;20652;-51
2022/01/23 14:46:57;;;;;;;10.45;3.40;;;21.00;63.50;;;;;;7808521;28;20194;-49
2022/01/23 14:50:48;;;;;;;8.80;3.90;;;21.00;63.50;;;;;;7812228;28;20202;-49
2022/01/23 14:54:33;;;;;;;11.75;3.88;;;21.00;63.30;;;;;;7813137;28;20170;-50
2022/01/23 14:58:21;;;;;;;6.75;3.90;;;21.00;63.30;;;;;;7812638;28;20298;-49
2022/01/23 15:02:07;;;;;;;6.28;3.08;;;21.10;63.40;;;;;;7813071;28;20182;-49
2022/01/23 15:05:54;;;;;;;6.95;3.30;;;21.10;63.20;;;;;;7813294;28;20206;-50
2022/01/23 15:09:41;;;;;;;9.95;2.72;;;21.10;63.20;;;;;;7812937;28;20206;-50
2022/01/23 15:13:29;;;;;;;7.07;3.50;;;21.20;63.10;;;;;;7812930;28;20206;-50
2022/01/23 15:17:14;;;;;;;12.10;3.00;;;21.20;63.10;;;;;;7813051;28;20177;-54
2022/01/23 15:21:00;;;;;;;9.02;2.97;;;21.20;63.10;;;;;;7812530;28;20183;-50
2022/01/23 15:24:47;;;;;;;4.65;2.95;;;21.30;63.00;;;;;;7812501;28;20182;-49
2022/01/23 15:28:32;;;;;;;8.20;3.70;;;21.30;62.90;;;;;;7811948;28;20692;-53
2022/01/23 15:32:18;;;;;;;5.13;2.85;;;21.30;62.80;;;;;;7811952;28;20643;-50
2022/01/23 15:36:04;;;;;;;5.80;3.00;;;21.30;62.80;;;;;;7811999;28;20175;-50
2022/01/23 15:39:51;;;;;;;4.70;2.80;;;21.40;63.00;;;;;;7810844;28;20198;-50
2022/01/23 15:43:37;;;;;;;4.20;2.70;;;21.40;62.70;;;;;;7811122;28;20667;-50
2022/01/23 15:47:22;;;;;;;6.03;2.60;;;21.40;62.70;;;;;;7810858;28;20620;-50
2022/01/23 15:51:09;;;;;;;5.30;2.80;;;21.40;62.70;;;;;;7810557;28;20233;-53
2022/01/23 15:54:55;;;;;;;9.50;2.88;;;21.50;62.60;;;;;;7810933;28;20190;-49
2022/01/23 15:58:40;;;;;;;5.20;2.78;;;21.50;62.60;;;;;;7809516;28;20305;-53
2022/01/23 16:02:26;;;;;;;3.50;2.38;;;21.50;62.60;;;;;;7810680;28;20214;-49
2022/01/23 16:06:12;;;;;;;5.40;2.80;;;21.50;62.50;;;;;;7810444;28;20676;-51
2022/01/23 16:09:58;;;;;;;8.85;3.40;;;21.60;63.50;;;;;;7810053;28;20589;-49
2022/01/23 16:13:43;;;;;;;11.00;2.72;;;21.60;62.70;;;;;;7810147;28;20208;-51
2022/01/23 16:17:29;;;;;;;55.53;9.27;;;21.70;62.60;;;;;;7810007;28;20676;-52
2022/01/23 16:21:14;;;;;;;65.47;11.30;;;21.70;62.10;;;;;;7810017;28;20194;-50
2022/01/23 16:25:00;;;;;;;61.85;10.73;;;21.70;62.00;;;;;;7810555;28;20257;-54
2022/01/23 16:28:47;;;;;;;43.38;7.85;;;21.70;61.90;;;;;;7809505;28;20676;-53
2022/01/23 16:32:32;;;;;;;53.80;10.07;;;21.80;61.30;;;;;;7809646;28;20565;-53
2022/01/23 16:36:18;;;;;;;43.30;8.90;;;21.70;61.60;;;;;;7809905;28;20240;-52
2022/01/23 16:40:04;;;;;;;27.80;6.97;;;21.80;61.40;;;;;;7809436;28;20199;-49
2022/01/23 16:43:49;;;;;;;21.20;6.45;;;21.90;61.40;;;;;;7809745;28;20182;-50
2022/01/23 16:47:35;;;;;;;22.63;5.22;;;21.90;61.40;;;;;;7808976;28;20244;-49
2022/01/23 16:51:21;;;;;;;49.88;7.88;;;22.00;61.50;;;;;;7809271;28;20215;-61
2022/01/23 16:55:07;;;;;;;22.00;5.43;;;22.10;61.00;;;;;;7809402;28;20178;-49
2022/01/23 16:58:52;;;;;;;18.73;5.00;;;22.10;61.80;;;;;;7808753;28;20214;-50
2022/01/23 17:02:38;;;;;;;36.83;8.57;;;22.10;61.90;;;;;;7808934;28;20183;-49
2022/01/23 17:06:25;;;;;;;37.50;7.18;;;22.20;62.30;;;;;;7809164;28;20194;-50
2022/01/23 17:10:10;;;;;;;27.65;5.78;;;22.30;62.00;;;;;;7808351;28;20202;-49
2022/01/23 17:13:56;;;;;;;27.73;6.32;;;22.40;62.00;;;;;;7808540;28;20206;-50
2022/01/23 17:17:41;;;;;;;35.33;5.93;;;22.50;62.10;;;;;;7808098;28;20202;-50
2022/01/23 17:21:27;;;;;;;18.27;5.45;;;22.60;62.50;;;;;;7808312;28;20194;-49
2022/01/23 17:25:12;;;;;;;22.65;5.13;;;22.70;62.60;;;;;;7807794;28;20191;-50
2022/01/23 17:28:58;;;;;;;37.55;6.38;;;22.80;64.00;;;;;;7810125;28;20212;-50
2022/01/23 17:32:43;;;;;;;53.63;6.15;;;23.00;63.50;;;;;;7823500;28;20285;-51
2022/01/23 17:36:29;;;;;;;44.45;6.05;;;23.10;64.10;;;;;;7821559;28;20170;-50
2022/01/23 17:40:15;;;;;;;44.47;5.97;;;23.20;63.80;;;;;;7823998;28;20202;-49
2022/01/23 17:44:01;;;;;;;27.85;6.25;;;23.20;63.20;;;;;;7838630;28;20192;-49
2022/01/23 17:51:37;;;;;;;27.40;5.53;;;23.30;63.50;;;;;;7824645;28;20214;-50
2022/01/23 17:55:23;;;;;;;31.88;5.15;;;23.40;64.00;;;;;;7807525;28;20179;-49
2022/01/23 17:59:08;;;;;;;26.70;4.47;;;23.40;64.30;;;;;;7824218;28;20201;-49
2022/01/23 18:02:55;;;;;;;16.67;5.32;;;23.50;65.10;;;;;;7831212;28;20182;-50
2022/01/23 18:06:43;;;;;;;24.05;5.10;;;23.50;64.80;;;;;;7833696;28;20209;-53
2022/01/23 18:10:28;;;;;;;27.08;5.80;;;23.60;67.70;;;;;;7825154;28;20202;-50
2022/01/23 18:14:15;;;;;;;18.05;5.20;;;23.70;68.10;;;;;;7805780;28;20706;-49
2022/01/23 18:18:00;;;;;;;27.88;5.47;;;23.80;68.70;;;;;;7817892;28;20202;-50
2022/01/23 18:21:46;;;;;;;28.55;6.07;;;23.90;68.80;;;;;;7838504;28;20308;-51
2022/01/23 18:25:33;;;;;;;20.85;6.53;;;24.10;68.80;;;;;;7818907;28;20187;-51
2022/01/23 18:29:19;;;;;;;25.77;7.22;;;24.20;69.00;;;;;;7821066;28;20212;-51
2022/01/23 18:33:04;;;;;;;29.92;7.90;;;24.30;68.90;;;;;;7825427;28;20226;-51
2022/01/23 18:36:52;;;;;;;16.70;7.15;;;24.40;69.00;;;;;;7812157;28;20186;-53
2022/01/23 18:40:37;;;;;;;23.15;7.68;;;24.50;68.50;;;;;;7811666;28;20182;-49
2022/01/23 18:44:23;;;;;;;16.35;7.57;;;24.50;68.40;;;;;;7822666;28;20182;-50
2022/01/23 18:48:09;;;;;;;21.38;7.93;;;24.50;68.50;;;;;;7842465;28;20212;-50
2022/01/23 18:51:57;;;;;;;13.23;7.03;;;24.60;68.30;;;;;;7814294;28;20248;-51
2022/01/23 18:55:46;;;;;;;22.25;7.53;;;24.60;68.20;;;;;;7811708;28;20175;-50
2022/01/23 18:59:36;;;;;;;15.63;7.82;;;24.60;68.00;;;;;;7811369;28;20202;-49
2022/01/23 19:03:29;;;;;;;17.48;6.85;;;24.60;68.10;;;;;;7811160;28;20179;-50
2022/01/23 19:07:23;;;;;;;18.77;6.97;;;24.60;68.30;;;;;;7811271;28;20186;-50
2022/01/23 19:11:08;;;;;;;14.85;6.40;;;24.60;68.50;;;;;;7810557;28;20200;-49
2022/01/23 19:14:54;;;;;;;15.93;6.32;;;24.60;68.70;;;;;;7811042;28;20174;-49
2022/01/23 19:18:40;;;;;;;15.77;6.07;;;24.50;68.70;;;;;;7812519;28;20826;-49
2022/01/23 19:22:26;;;;;;;15.70;5.45;;;24.50;68.80;;;;;;7841296;28;20264;-49
2022/01/23 19:26:12;;;;;;;15.77;5.75;;;24.50;68.80;;;;;;7841928;28;20182;-51
2022/01/23 19:29:58;;;;;;;17.20;5.90;;;24.50;69.00;;;;;;7841129;28;20196;-49
2022/01/23 19:33:44;;;;;;;12.52;4.93;;;24.40;69.20;;;;;;7819337;28;20618;-51
2022/01/23 19:37:29;;;;;;;38.70;5.72;;;24.40;69.20;;;;;;7840685;28;20170;-49
2022/01/23 19:41:21;;;;;;;14.07;5.43;;;24.30;69.40;;;;;;7833615;28;20618;-52
2022/01/23 19:45:06;;;;;;;13.85;5.05;;;24.30;69.40;;;;;;7809644;28;20309;-49
2022/01/23 19:48:57;;;;;;;12.02;4.80;;;24.30;69.50;;;;;;7813965;28;20213;-49
2022/01/23 19:52:43;;;;;;;8.75;4.53;;;24.30;69.70;;;;;;7838999;28;20217;-50
2022/01/23 19:56:29;;;;;;;11.07;4.68;;;24.20;69.70;;;;;;7809871;28;20170;-49
2022/01/23 20:00:18;;;;;;;11.75;4.80;;;24.10;69.40;;;;;;7809317;28;20256;-49
2022/01/23 20:04:04;;;;;;;18.23;4.55;;;24.10;69.10;;;;;;7821641;28;20965;-51
2022/01/23 20:07:50;;;;;;;13.85;4.30;;;23.80;70.00;;;;;;7817619;28;20552;-49
2022/01/23 20:15:31;;;;;;;23.42;4.50;;;23.80;65.00;;;;;;7820700;28;20214;-54
2022/01/23 20:19:16;;;;;;;16.90;3.80;;;23.60;65.90;;;;;;7815707;28;20201;-51
2022/01/23 20:23:02;;;;;;;17.15;3.65;;;23.60;66.20;;;;;;7809073;28;20195;-50
2022/01/23 20:26:48;;;;;;;15.80;3.90;;;23.60;67.50;;;;;;7809644;28;20190;-52
2022/01/23 20:30:34;;;;;;;11.10;4.00;;;23.60;67.40;;;;;;7808522;28;20209;-50
2022/01/23 20:34:19;;;;;;;11.48;3.15;;;23.60;67.20;;;;;;7816893;28;20627;-53
2022/01/23 20:38:09;;;;;;;17.02;3.88;;;23.70;67.30;;;;;;7821373;28;20306;-54
2022/01/23 20:41:54;;;;;;;21.30;3.42;;;23.60;67.10;;;;;;7813761;28;20182;-48
2022/01/23 20:45:40;;;;;;;15.55;4.03;;;23.60;66.80;;;;;;7839438;28;20202;-47
2022/01/23 20:49:27;;;;;;;16.70;3.33;;;23.50;67.40;;;;;;7829782;28;20218;-47
2022/01/23 20:53:48;;;;;;;11.95;3.70;;;23.60;67.70;;;;;;7808480;28;20289;-47
2022/01/23 20:57:19;;;;;;;20.27;3.47;;;23.50;67.80;;;;;;7808389;28;20179;-47
2022/01/23 21:01:04;;;;;;;16.15;3.20;;;23.50;67.80;;;;;;7808218;28;20217;-47
2022/01/23 21:04:50;;;;;;;14.48;3.58;;;23.50;67.90;;;;;;7821574;28;20192;-47
2022/01/23 21:08:38;;;;;;;23.65;3.22;;;23.50;68.00;;;;;;7838894;28;20674;-48
2022/01/23 21:12:25;;;;;;;11.80;2.75;;;23.50;68.00;;;;;;7838854;28;20201;-48
2022/01/23 21:20:17;;;;;;;14.98;3.40;;;23.50;68.00;;;;;;7822432;28;20198;-47
2022/01/23 21:40:06;;;;;;;12.95;2.30;;;23.40;67.70;;;;;;7816743;28;20207;-52
2022/01/23 21:43:52;;;;;;;17.00;3.00;;;23.40;67.70;;;;;;7806745;28;20190;-53
2022/01/23 21:47:37;;;;;;;14.98;2.55;;;23.30;66.40;;;;;;7822616;28;20295;-49
2022/01/23 21:51:23;;;;;;;11.93;2.45;;;23.30;67.60;;;;;;7817420;28;20203;-50
2022/01/23 21:55:08;;;;;;;16.52;3.03;;;23.20;67.50;;;;;;7821160;28;20269;-52
2022/01/23 21:58:54;;;;;;;10.65;2.67;;;23.20;67.50;;;;;;7807559;28;20292;-50
2022/01/23 22:02:39;;;;;;;12.57;3.28;;;23.10;66.50;;;;;;7827288;28;20853;-51
2022/01/23 22:06:25;;;;;;;7.72;2.40;;;23.10;66.80;;;;;;7824556;28;20196;-53
2022/01/23 22:10:56;;;;;;;6.40;2.40;;;23.00;66.00;;;;;;7821930;28;20276;-50
2022/01/23 22:18:40;;;;;;;6.75;2.58;;;22.90;65.80;;;;;;7817865;28;20255;-52
2022/01/23 22:22:58;;;;;;;11.00;2.72;;;22.80;65.50;;;;;;7822746;28;20642;-54
2022/01/23 22:26:46;;;;;;;4.47;2.30;;;22.70;65.50;;;;;;7822744;28;20232;-53
2022/01/23 22:30:31;;;;;;;4.05;2.30;;;22.70;65.50;;;;;;7817786;28;20256;-52
2022/01/23 22:34:17;;;;;;;6.00;2.83;;;22.60;65.20;;;;;;7806805;28;20202;-52
2022/01/23 22:38:02;;;;;;;7.30;2.70;;;22.50;64.70;;;;;;7806408;28;20672;-53
2022/01/23 22:41:48;;;;;;;6.53;2.65;;;22.50;64.80;;;;;;7806772;28;20703;-52
2022/01/23 22:45:57;;;;;;;4.97;3.00;;;22.40;63.90;;;;;;7806774;28;20191;-52
2022/01/23 22:49:39;;;;;;;11.63;3.25;;;22.40;64.00;;;;;;7806367;28;20198;-50
2022/01/23 22:53:25;;;;;;;6.50;3.00;;;22.30;64.00;;;;;;7806539;28;20276;-49
2022/01/23 22:57:11;;;;;;;6.90;2.75;;;22.30;63.90;;;;;;7806583;28;20171;-49
2022/01/23 23:00:56;;;;;;;5.82;2.63;;;22.20;63.80;;;;;;7806229;28;20208;-50
2022/01/23 23:04:42;;;;;;;7.72;2.50;;;22.20;63.90;;;;;;7806364;28;20607;-49